Time;durP1;ratioP1;P1;durP2;ratioP2;P2;SDS_P1;SDS_P2;PMS_P1;PMS_P2;Temp;Humidity;BMP_temperature;BMP_pressure;BME280_temperature;BME280_humidity;BME280_pressure;Samples;Min_cycle;Max_cycle;Signal;HPM_P1;HPM_P2
2023/06/12 00:00:54;;;;;;;3.90;2.95;;;23.60;57.50;;;;;;5045054;28;20172;-30
2023/06/12 00:03:21;;;;;;;3.65;3.20;;;24.60;71.90;;;;;;5051846;28;20044;-30
2023/06/12 00:05:48;;;;;;;4.05;3.30;;;;;;;;;;5051939;28;20490;-31
2023/06/12 00:08:17;;;;;;;3.80;3.40;;;24.10;72.00;;;;;;5052043;28;20132;-30
2023/06/12 00:10:44;;;;;;;3.90;3.50;;;23.80;71.90;;;;;;5051683;28;20057;-30
2023/06/12 00:13:11;;;;;;;6.13;3.33;;;23.50;71.40;;;;;;5051291;28;20048;-30
2023/06/12 00:15:38;;;;;;;3.72;3.20;;;;;;;;;;5051564;28;20128;-30
2023/06/12 00:18:06;;;;;;;3.63;3.17;;;24.20;62.20;;;;;;5051646;28;20048;-30
2023/06/12 00:20:33;;;;;;;3.20;2.90;;;;;;;;;;5050781;28;20049;-30
2023/06/12 00:23:01;;;;;;;3.85;3.05;;;;;;;;;;5051001;28;20048;-32
2023/06/12 00:25:28;;;;;;;4.47;3.22;;;23.90;66.90;;;;;;5051563;28;20128;-30
2023/06/12 00:27:55;;;;;;;4.50;3.00;;;;;;;;;;5051415;28;20438;-31
2023/06/12 00:30:22;;;;;;;3.40;3.10;;;23.90;71.50;;;;;;5051358;28;20401;-30
2023/06/12 00:32:48;;;;;;;5.25;3.63;;;24.20;72.50;;;;;;5050725;28;20700;-30
2023/06/12 00:35:18;;;;;;;3.28;2.80;;;24.40;63.30;;;;;;5051503;28;20131;-31
2023/06/12 00:37:45;;;;;;;5.82;3.30;;;;;;;;;;5051047;28;20540;-31
2023/06/12 00:40:12;;;;;;;4.03;3.15;;;;;;;;;;5051235;28;20136;-31
2023/06/12 00:42:45;;;;;;;3.97;3.35;;;24.20;59.30;;;;;;5052508;28;20131;-31
2023/06/12 00:45:12;;;;;;;3.72;3.40;;;24.90;62.70;;;;;;5063206;28;20041;-30
2023/06/12 00:47:39;;;;;;;3.80;2.88;;;23.90;71.60;;;;;;5065199;28;20128;-30
2023/06/12 00:50:09;;;;;;;3.17;2.60;;;23.60;69.70;;;;;;5051345;28;20049;-30
2023/06/12 00:52:39;;;;;;;2.97;2.67;;;23.90;72.30;;;;;;5051375;28;20132;-31
2023/06/12 00:55:06;;;;;;;3.17;2.75;;;23.80;56.50;;;;;;5051383;28;20136;-31
2023/06/12 00:57:33;;;;;;;3.40;3.10;;;24.70;72.90;;;;;;5046484;28;20129;-30
2023/06/12 01:00:00;;;;;;;3.25;2.90;;;;;;;;;;5031586;28;20133;-31
2023/06/12 01:02:27;;;;;;;3.72;2.95;;;23.40;65.30;;;;;;5030850;28;20049;-30
2023/06/12 01:04:55;;;;;;;3.53;2.92;;;;;;;;;;5044100;28;20136;-31
2023/06/12 01:07:29;;;;;;;3.72;2.95;;;23.80;56.60;;;;;;5051296;28;20231;-31
2023/06/12 01:10:01;;;;;;;3.20;2.90;;;23.80;56.60;;;;;;5051635;28;20409;-32
2023/06/12 01:12:28;;;;;;;3.22;2.78;;;23.10;64.00;;;;;;5050851;28;20868;-31
2023/06/12 01:14:55;;;;;;;3.55;2.90;;;23.70;71.90;;;;;;5051219;28;20049;-30
2023/06/12 01:17:21;;;;;;;4.55;2.83;;;23.40;58.80;;;;;;5051210;28;20049;-30
2023/06/12 01:19:49;;;;;;;3.65;2.80;;;;;;;;;;5051051;28;20128;-31
2023/06/12 01:22:16;;;;;;;3.15;2.70;;;23.20;72.10;;;;;;5050916;28;20048;-30
2023/06/12 01:25:11;;;;;;;2.95;2.58;;;23.50;71.50;;;;;;5051507;28;20045;-30
2023/06/12 01:27:58;;;;;;;3.25;2.83;;;23.70;56.60;;;;;;5014518;28;20053;-32
2023/06/12 01:30:42;;;;;;;4.20;2.88;;;23.10;66.80;;;;;;5047284;28;20053;-30
2023/06/12 01:33:12;;;;;;;4.60;2.80;;;23.60;71.80;;;;;;5054311;28;20506;-30
2023/06/12 01:35:43;;;;;;;3.25;2.75;;;24.00;71.90;;;;;;5055002;28;20053;-31
2023/06/12 01:38:13;;;;;;;2.85;2.50;;;23.70;56.60;;;;;;5054417;28;20060;-30
2023/06/12 01:40:39;;;;;;;3.85;2.92;;;23.70;71.60;;;;;;5065071;28;20051;-30
2023/06/12 01:43:06;;;;;;;4.85;2.85;;;23.90;59.80;;;;;;5074832;28;20147;-30
2023/06/12 01:45:33;;;;;;;3.10;2.80;;;23.80;61.30;;;;;;5072054;28;20123;-30
2023/06/12 01:48:00;;;;;;;3.13;2.83;;;24.00;72.50;;;;;;5054748;28;20053;-32
2023/06/12 01:50:28;;;;;;;3.10;2.75;;;23.70;56.50;;;;;;5054558;28;20067;-31
2023/06/12 01:52:55;;;;;;;3.10;2.70;;;24.70;72.60;;;;;;5054286;28;20053;-32
2023/06/12 01:55:22;;;;;;;3.33;2.75;;;;;;;;;;5054376;28;20091;-31
2023/06/12 01:57:50;;;;;;;3.50;2.50;;;;;;;;;;5047372;28;20049;-31
2023/06/12 02:00:17;;;;;;;3.13;2.67;;;23.50;71.90;;;;;;5034418;28;20533;-32
2023/06/12 02:02:44;;;;;;;3.78;2.50;;;;;;;;;;5036941;28;20057;-32
2023/06/12 02:05:10;;;;;;;3.20;2.38;;;24.10;72.30;;;;;;5054289;28;20502;-32
2023/06/12 02:07:38;;;;;;;2.92;2.63;;;23.50;71.60;;;;;;5054390;28;20136;-32
2023/06/12 02:10:07;;;;;;;3.30;2.58;;;23.60;71.70;;;;;;5054227;28;20052;-32
2023/06/12 02:12:34;;;;;;;3.58;2.78;;;;;;;;;;5053797;28;20079;-32
2023/06/12 02:15:01;;;;;;;3.03;2.65;;;23.70;72.20;;;;;;5054127;28;20055;-32
2023/06/12 02:17:29;;;;;;;3.58;3.03;;;23.40;62.10;;;;;;5054306;28;20053;-32
2023/06/12 02:19:57;;;;;;;4.68;2.60;;;24.10;60.80;;;;;;5053924;28;20045;-32
2023/06/12 02:22:24;;;;;;;3.10;2.50;;;;;;;;;;5053444;28;20152;-32
2023/06/12 02:24:52;;;;;;;3.08;2.40;;;23.60;56.50;;;;;;5054086;28;20049;-30
2023/06/12 02:27:19;;;;;;;3.47;2.85;;;23.30;71.40;;;;;;5053743;28;20044;-31
2023/06/12 02:29:46;;;;;;;3.58;2.40;;;24.00;71.90;;;;;;5054038;28;20067;-30
2023/06/12 02:32:13;;;;;;;4.45;2.53;;;;;;;;;;5053237;28;20055;-31
2023/06/12 02:34:39;;;;;;;2.90;2.45;;;23.90;71.80;;;;;;5048264;28;20499;-30
2023/06/12 02:37:08;;;;;;;3.35;2.58;;;;;;;;;;5046292;28;20148;-32
2023/06/12 02:39:35;;;;;;;3.63;2.47;;;23.70;64.20;;;;;;5035905;28;20060;-31
2023/06/12 02:42:03;;;;;;;3.65;2.78;;;23.60;62.90;;;;;;5033659;28;20053;-30
2023/06/12 02:44:30;;;;;;;3.63;2.40;;;23.80;69.40;;;;;;5032954;28;20406;-30
2023/06/12 02:46:57;;;;;;;5.00;2.47;;;23.60;56.50;;;;;;5033865;28;20122;-32
2023/06/12 02:49:25;;;;;;;3.17;2.47;;;23.60;63.00;;;;;;5033640;28;20046;-30
2023/06/12 02:51:51;;;;;;;3.47;2.60;;;23.30;72.30;;;;;;5033588;28;20092;-30
2023/06/12 02:54:19;;;;;;;2.95;2.45;;;23.00;72.20;;;;;;5047533;28;20056;-30
2023/06/12 02:56:46;;;;;;;3.30;2.42;;;24.20;66.60;;;;;;5053592;28;20053;-30
2023/06/12 02:59:15;;;;;;;3.60;2.47;;;23.20;71.60;;;;;;5035141;28;20091;-30
2023/06/12 03:01:43;;;;;;;3.33;2.40;;;23.50;71.70;;;;;;5033407;28;20140;-30
2023/06/12 03:04:11;;;;;;;3.45;2.33;;;23.00;71.30;;;;;;5033273;28;20050;-30
2023/06/12 03:06:38;;;;;;;2.78;2.40;;;23.90;64.00;;;;;;5033236;28;20136;-30
2023/06/12 03:09:05;;;;;;;2.97;2.63;;;22.50;71.10;;;;;;5033725;28;20128;-30
2023/06/12 03:11:32;;;;;;;4.25;2.50;;;24.00;59.10;;;;;;5049735;28;20053;-31
2023/06/12 03:13:59;;;;;;;2.72;2.40;;;23.40;71.70;;;;;;5053237;28;20131;-30
2023/06/12 03:16:27;;;;;;;2.63;2.10;;;23.10;56.10;;;;;;5052961;28;20055;-31
2023/06/12 03:18:54;;;;;;;2.88;2.30;;;22.90;66.40;;;;;;5052665;28;20077;-30
2023/06/12 03:21:21;;;;;;;3.65;2.25;;;23.30;71.60;;;;;;5052424;28;20054;-30
2023/06/12 03:23:47;;;;;;;3.38;2.50;;;23.50;71.80;;;;;;5048910;28;20131;-30
2023/06/12 03:26:14;;;;;;;4.10;2.40;;;24.30;58.40;;;;;;5052336;28;20052;-31
2023/06/12 03:28:41;;;;;;;3.08;2.42;;;23.70;71.80;;;;;;5052207;28;20128;-30
2023/06/12 03:31:08;;;;;;;3.90;2.28;;;;;;;;;;5050446;28;20135;-32
2023/06/12 03:33:36;;;;;;;3.00;2.35;;;22.30;71.00;;;;;;5052043;28;20127;-30
2023/06/12 03:36:04;;;;;;;3.15;2.35;;;23.70;72.20;;;;;;5051647;28;20049;-30
2023/06/12 03:38:31;;;;;;;3.53;2.10;;;;;;;;;;5049506;28;20060;-31
2023/06/12 03:40:58;;;;;;;2.83;2.42;;;;;;;;;;5051642;28;20128;-31
2023/06/12 03:43:25;;;;;;;2.55;2.15;;;23.20;66.80;;;;;;5051686;28;20040;-31
2023/06/12 03:45:51;;;;;;;2.92;2.30;;;23.40;71.70;;;;;;5051243;28;20067;-30
2023/06/12 03:48:18;;;;;;;3.08;2.20;;;24.30;72.60;;;;;;5051962;28;20043;-30
2023/06/12 03:50:46;;;;;;;2.58;2.20;;;23.70;61.00;;;;;;5051972;28;20437;-30
2023/06/12 03:53:13;;;;;;;3.40;2.30;;;24.30;59.80;;;;;;5048796;28;20054;-31
2023/06/12 03:55:40;;;;;;;4.90;2.40;;;23.80;71.80;;;;;;5051764;28;20075;-30
2023/06/12 03:58:07;;;;;;;3.20;2.35;;;23.90;66.00;;;;;;5051124;28;20123;-30
2023/06/12 04:00:34;;;;;;;3.75;2.20;;;24.40;72.10;;;;;;5051911;28;20736;-30
2023/06/12 04:03:02;;;;;;;3.20;2.38;;;;;;;;;;5051728;28;20136;-32
2023/06/12 04:05:28;;;;;;;3.40;2.25;;;23.30;72.50;;;;;;5052322;28;20107;-30
2023/06/12 04:07:56;;;;;;;2.92;2.30;;;23.40;56.30;;;;;;5052012;28;20049;-32
2023/06/12 04:10:24;;;;;;;4.38;2.22;;;;;;;;;;5051962;28;20056;-30
2023/06/12 04:12:50;;;;;;;3.10;2.40;;;23.60;71.80;;;;;;5051603;28;20136;-30
2023/06/12 04:15:19;;;;;;;4.25;2.30;;;;;;;;;;5051492;28;20406;-32
2023/06/12 04:17:46;;;;;;;3.70;2.40;;;;;;;;;;5051345;28;20468;-32
2023/06/12 04:20:13;;;;;;;3.53;2.40;;;23.60;60.70;;;;;;5051478;28;20486;-30
2023/06/12 04:22:41;;;;;;;3.45;2.20;;;;;;;;;;5051786;28;20049;-31
2023/06/12 04:25:10;;;;;;;2.88;2.30;;;23.30;56.20;;;;;;5051443;28;20053;-31
2023/06/12 04:27:37;;;;;;;3.35;2.40;;;23.40;72.40;;;;;;5042343;28;20053;-30
2023/06/12 04:30:04;;;;;;;3.63;2.55;;;23.60;71.60;;;;;;5031979;28;20127;-30
2023/06/12 04:32:32;;;;;;;3.88;2.38;;;;;;;;;;5031185;28;20045;-30
2023/06/12 04:34:58;;;;;;;3.10;2.30;;;22.20;62.30;;;;;;5035045;28;20076;-31
2023/06/12 04:37:25;;;;;;;4.28;2.50;;;;;;;;;;5049491;28;20067;-30
2023/06/12 04:39:52;;;;;;;3.53;2.33;;;;;;;;;;5051505;28;20045;-31
2023/06/12 04:42:23;;;;;;;3.75;2.25;;;23.50;72.50;;;;;;5050707;28;20068;-30
2023/06/12 04:44:49;;;;;;;4.57;2.25;;;23.20;68.90;;;;;;5051635;28;20060;-30
2023/06/12 04:47:16;;;;;;;2.75;2.30;;;;;;;;;;5050968;28;20417;-32
2023/06/12 04:49:45;;;;;;;3.17;2.35;;;22.90;71.40;;;;;;5051094;28;20494;-30
2023/06/12 04:52:12;;;;;;;3.47;2.40;;;22.40;71.60;;;;;;5051347;28;20055;-30
2023/06/12 04:54:41;;;;;;;4.63;2.40;;;23.80;57.20;;;;;;5051138;28;20446;-31
2023/06/12 04:57:12;;;;;;;4.60;2.28;;;23.80;72.70;;;;;;5050396;28;20081;-30
2023/06/12 04:59:40;;;;;;;3.03;2.30;;;23.70;59.70;;;;;;5031415;28;20049;-30
2023/06/12 05:02:07;;;;;;;6.53;2.30;;;23.30;56.40;;;;;;5050452;28;20128;-30
2023/06/12 05:04:35;;;;;;;4.25;2.17;;;23.00;72.00;;;;;;5050561;28;20095;-30
2023/06/12 05:07:04;;;;;;;2.40;2.10;;;;;;;;;;5035170;28;20056;-31
2023/06/12 05:09:32;;;;;;;3.95;2.40;;;;;;;;;;5055603;28;20103;-32
2023/06/12 05:12:00;;;;;;;4.50;2.53;;;23.00;61.70;;;;;;5055132;28;20053;-30
2023/06/12 05:14:28;;;;;;;3.00;2.40;;;;;;;;;;5054853;28;20455;-30
2023/06/12 05:16:58;;;;;;;2.72;2.10;;;23.30;71.90;;;;;;5054938;28;20045;-30
2023/06/12 05:19:25;;;;;;;4.20;2.30;;;22.60;71.60;;;;;;5054946;28;20053;-30
2023/06/12 05:21:52;;;;;;;3.35;2.20;;;22.60;72.20;;;;;;5054903;28;20049;-31
2023/06/12 05:24:19;;;;;;;3.05;2.30;;;23.10;71.70;;;;;;5062198;28;20055;-30
2023/06/12 05:26:46;;;;;;;2.95;2.58;;;24.00;72.50;;;;;;5066529;28;20550;-30
2023/06/12 05:29:13;;;;;;;3.90;2.17;;;23.30;72.70;;;;;;5074672;28;20607;-30
2023/06/12 05:31:40;;;;;;;3.03;2.40;;;;;;;;;;5074913;28;20144;-31
2023/06/12 05:34:08;;;;;;;3.00;2.25;;;23.20;56.40;;;;;;5062607;28;20115;-30
2023/06/12 05:36:35;;;;;;;2.58;2.20;;;;;;;;;;5053942;28;20123;-31
2023/06/12 05:39:02;;;;;;;3.22;2.35;;;;;;;;;;5054387;28;20055;-30
2023/06/12 05:41:29;;;;;;;2.50;2.20;;;;;;;;;;5054576;28;20114;-30
2023/06/12 05:43:56;;;;;;;3.05;2.28;;;;;;;;;;5054370;28;20049;-31
2023/06/12 05:46:23;;;;;;;4.35;2.40;;;23.00;72.60;;;;;;5054515;28;20140;-30
2023/06/12 05:48:50;;;;;;;4.18;2.20;;;23.50;58.00;;;;;;5054284;28;20215;-30
2023/06/12 05:51:18;;;;;;;3.28;2.38;;;23.20;56.50;;;;;;5053886;28;20056;-30
2023/06/12 05:53:45;;;;;;;3.33;2.25;;;24.00;62.10;;;;;;5054204;28;20132;-30
2023/06/12 05:56:12;;;;;;;3.20;2.30;;;22.90;71.70;;;;;;5054211;28;20045;-30
2023/06/12 05:58:39;;;;;;;2.80;2.28;;;22.60;71.60;;;;;;5040483;28;20461;-30
2023/06/12 06:01:09;;;;;;;3.85;2.10;;;23.20;72.80;;;;;;5033927;28;20084;-30
2023/06/12 06:03:35;;;;;;;3.13;2.45;;;23.00;72.20;;;;;;5034101;28;20107;-30
2023/06/12 06:06:02;;;;;;;3.85;2.47;;;23.60;72.60;;;;;;5034446;28;20124;-30
2023/06/12 06:08:30;;;;;;;2.85;2.50;;;23.50;67.10;;;;;;5046808;28;20049;-30
2023/06/12 06:10:58;;;;;;;5.10;2.55;;;;;;;;;;5053952;28;20128;-30
2023/06/12 06:13:24;;;;;;;2.72;2.38;;;23.30;72.50;;;;;;5053822;28;20083;-30
2023/06/12 06:15:52;;;;;;;3.33;2.20;;;23.40;60.20;;;;;;5052713;28;20047;-30
2023/06/12 06:18:18;;;;;;;4.25;2.47;;;23.20;72.90;;;;;;5038785;28;20124;-30
2023/06/12 06:20:46;;;;;;;3.13;2.20;;;;;;;;;;5041587;28;20060;-31
2023/06/12 06:23:12;;;;;;;2.97;2.40;;;23.80;68.20;;;;;;5033844;28;20046;-30
2023/06/12 06:25:40;;;;;;;3.20;2.00;;;23.20;56.70;;;;;;5049005;28;20578;-31
2023/06/12 06:28:07;;;;;;;2.88;2.15;;;23.50;72.30;;;;;;5053898;28;20132;-30
2023/06/12 06:30:34;;;;;;;3.50;2.20;;;23.60;67.60;;;;;;5036193;28;20076;-30
2023/06/12 06:33:01;;;;;;;4.47;2.72;;;23.00;71.90;;;;;;5053648;28;20425;-30
2023/06/12 06:35:28;;;;;;;2.72;2.13;;;;;;;;;;5053701;28;20045;-31
2023/06/12 06:37:55;;;;;;;5.28;2.45;;;23.00;72.30;;;;;;5053327;28;20059;-30
2023/06/12 06:40:22;;;;;;;3.72;2.30;;;23.10;70.20;;;;;;5053598;28;20069;-30
2023/06/12 06:42:52;;;;;;;2.88;2.40;;;23.30;72.90;;;;;;5052637;28;20132;-30
2023/06/12 06:45:20;;;;;;;3.67;2.65;;;;;;;;;;5053329;28;20053;-30
2023/06/12 06:47:46;;;;;;;2.47;2.17;;;23.50;67.60;;;;;;5053678;28;20053;-30
2023/06/12 06:50:13;;;;;;;3.42;2.55;;;22.80;71.70;;;;;;5053563;28;20133;-30
2023/06/12 06:52:40;;;;;;;3.65;2.78;;;23.00;71.90;;;;;;5052682;28;20132;-30
2023/06/12 06:55:07;;;;;;;5.35;2.60;;;23.20;71.40;;;;;;5053325;28;20045;-30
2023/06/12 06:57:36;;;;;;;4.22;2.60;;;;;;;;;;5049192;28;20166;-31
2023/06/12 07:00:06;;;;;;;3.53;2.50;;;23.10;72.70;;;;;;5053544;28;20056;-30
2023/06/12 07:02:33;;;;;;;3.78;2.47;;;24.00;66.50;;;;;;5053315;28;20053;-30
2023/06/12 07:05:00;;;;;;;4.20;2.67;;;;;;;;;;5050476;28;20420;-30
2023/06/12 07:07:27;;;;;;;3.30;2.50;;;;;;;;;;5033150;28;20470;-30
2023/06/12 07:09:54;;;;;;;4.28;2.67;;;23.20;71.80;;;;;;5052475;28;20045;-30
2023/06/12 07:12:21;;;;;;;3.15;2.70;;;;;;;;;;5052716;28;20052;-30
2023/06/12 07:14:48;;;;;;;5.00;2.58;;;23.10;71.90;;;;;;5053179;28;20065;-30
2023/06/12 07:17:16;;;;;;;4.13;2.50;;;23.70;72.10;;;;;;5036025;28;20688;-30
2023/06/12 07:19:43;;;;;;;3.65;2.65;;;23.20;71.80;;;;;;5048066;28;20048;-30
2023/06/12 07:22:09;;;;;;;3.28;2.47;;;23.10;68.60;;;;;;5046141;28;20049;-30
2023/06/12 07:24:36;;;;;;;3.42;2.58;;;24.10;72.20;;;;;;5041872;28;20049;-30
2023/06/12 07:27:03;;;;;;;5.80;2.67;;;23.50;72.00;;;;;;5052569;28;20190;-30
2023/06/12 07:29:30;;;;;;;3.30;2.53;;;22.40;71.40;;;;;;5052421;28;20557;-30
2023/06/12 07:31:57;;;;;;;3.60;2.40;;;22.60;71.70;;;;;;5052562;28;20049;-30
2023/06/12 07:34:25;;;;;;;2.67;2.33;;;23.20;56.60;;;;;;5051655;28;20124;-31
2023/06/12 07:36:52;;;;;;;3.67;2.50;;;;;;;;;;5051947;28;20041;-31
2023/06/12 07:39:19;;;;;;;4.35;2.83;;;22.80;71.70;;;;;;5051609;28;20760;-30
2023/06/12 07:41:46;;;;;;;3.60;2.90;;;;;;;;;;5049614;28;20567;-31
2023/06/12 07:44:13;;;;;;;4.47;2.72;;;23.10;64.20;;;;;;5052045;28;20490;-30
2023/06/12 07:46:41;;;;;;;3.55;2.45;;;23.40;72.90;;;;;;5051870;28;20110;-30
2023/06/12 07:49:08;;;;;;;3.55;2.60;;;;;;;;;;5052179;28;20071;-30
2023/06/12 07:51:37;;;;;;;3.10;2.70;;;23.60;72.50;;;;;;5052582;28;20052;-30
2023/06/12 07:54:04;;;;;;;3.00;2.50;;;24.20;72.60;;;;;;5051688;28;20509;-30
2023/06/12 07:56:32;;;;;;;4.03;2.78;;;;;;;;;;5052291;28;20115;-30
2023/06/12 07:59:06;;;;;;;3.28;2.70;;;23.00;57.00;;;;;;5046825;28;20493;-30
2023/06/12 08:01:34;;;;;;;7.50;3.00;;;23.60;68.50;;;;;;5030414;28;20525;-30
2023/06/12 08:04:03;;;;;;;3.78;2.90;;;24.30;72.60;;;;;;5047140;28;20045;-30
2023/06/12 08:06:35;;;;;;;3.88;2.63;;;23.00;67.60;;;;;;5050312;28;20053;-30
2023/06/12 08:09:03;;;;;;;3.35;2.78;;;23.50;72.30;;;;;;5050327;28;20513;-30
2023/06/12 08:11:30;;;;;;;3.70;2.63;;;23.30;72.00;;;;;;5051474;28;20053;-30
2023/06/12 08:13:57;;;;;;;3.38;2.65;;;;;;;;;;5051129;28;20128;-31
2023/06/12 08:16:24;;;;;;;4.15;3.03;;;23.80;72.90;;;;;;5051663;28;20140;-30
2023/06/12 08:18:51;;;;;;;4.35;2.67;;;;;;;;;;5051976;28;20133;-31
2023/06/12 08:21:18;;;;;;;3.95;2.70;;;23.00;72.40;;;;;;5051813;28;20057;-30
2023/06/12 08:23:45;;;;;;;2.95;2.63;;;22.90;72.40;;;;;;5051801;28;20151;-30
2023/06/12 08:26:13;;;;;;;2.97;2.58;;;22.40;66.60;;;;;;5051841;28;20132;-30
2023/06/12 08:28:39;;;;;;;2.70;2.50;;;23.10;66.00;;;;;;5051419;28;20128;-30
2023/06/12 08:31:06;;;;;;;4.47;2.53;;;24.20;72.40;;;;;;5033693;28;20053;-30
2023/06/12 08:33:33;;;;;;;3.35;2.70;;;22.80;71.80;;;;;;5043316;28;20124;-30
2023/06/12 08:36:00;;;;;;;3.25;2.60;;;22.90;59.40;;;;;;5051087;28;20051;-30
2023/06/12 08:38:26;;;;;;;3.92;2.70;;;23.60;72.50;;;;;;5051771;28;20053;-30
2023/06/12 08:40:54;;;;;;;3.92;2.83;;;23.40;56.80;;;;;;5051037;28;20057;-31
2023/06/12 08:43:22;;;;;;;3.95;2.63;;;22.90;72.00;;;;;;5051333;28;20126;-30
2023/06/12 08:45:49;;;;;;;3.00;2.60;;;23.60;72.30;;;;;;5051019;28;20124;-30
2023/06/12 08:48:17;;;;;;;3.55;2.35;;;23.40;56.80;;;;;;5051527;28;20059;-31
2023/06/12 08:50:44;;;;;;;3.60;2.40;;;23.50;56.80;;;;;;5045951;28;20052;-30
2023/06/12 08:53:11;;;;;;;2.85;2.50;;;23.30;71.70;;;;;;5051299;28;20123;-30
2023/06/12 08:55:39;;;;;;;3.55;2.65;;;23.20;71.80;;;;;;5051327;28;20132;-30
2023/06/12 08:58:07;;;;;;;3.53;2.85;;;;;;;;;;5045045;28;20056;-31
2023/06/12 09:00:35;;;;;;;3.72;2.90;;;23.80;72.80;;;;;;5051408;28;20107;-30
2023/06/12 09:03:04;;;;;;;3.58;2.38;;;23.70;72.70;;;;;;5051214;28;20060;-30
2023/06/12 09:05:33;;;;;;;3.38;2.40;;;23.90;65.30;;;;;;5051276;28;20448;-30
2023/06/12 09:08:00;;;;;;;3.03;2.63;;;22.60;59.40;;;;;;5049574;28;20045;-30
2023/06/12 09:10:27;;;;;;;3.00;2.50;;;24.60;61.80;;;;;;5048411;28;20413;-30
2023/06/12 09:12:54;;;;;;;4.05;2.88;;;23.90;65.60;;;;;;5038207;28;20447;-30
2023/06/12 09:15:21;;;;;;;3.42;2.67;;;24.30;66.20;;;;;;5051360;28;20135;-31
2023/06/12 09:17:49;;;;;;;4.55;2.92;;;23.90;72.00;;;;;;5051130;28;20227;-30
2023/06/12 09:20:17;;;;;;;4.03;2.75;;;23.30;71.60;;;;;;5032188;28;20045;-30
2023/06/12 09:22:44;;;;;;;5.55;3.00;;;24.00;71.90;;;;;;5030983;28;20104;-30
2023/06/12 09:25:11;;;;;;;4.47;2.60;;;23.60;56.70;;;;;;5050082;28;20560;-30
2023/06/12 09:27:45;;;;;;;3.70;2.70;;;23.50;71.90;;;;;;5051023;28;20052;-30
2023/06/12 09:30:12;;;;;;;3.20;2.50;;;23.40;72.90;;;;;;5048759;28;20041;-30
2023/06/12 09:32:40;;;;;;;2.60;2.33;;;23.60;56.70;;;;;;5050719;28;20056;-30
2023/06/12 09:35:09;;;;;;;4.95;2.65;;;23.60;56.70;;;;;;5046555;28;20524;-31
2023/06/12 09:37:37;;;;;;;4.10;3.20;;;22.70;71.10;;;;;;5047391;28;20052;-31
2023/06/12 09:40:11;;;;;;;7.95;3.20;;;23.60;70.50;;;;;;5051022;28;20049;-31
2023/06/12 09:42:38;;;;;;;3.20;2.90;;;23.60;66.80;;;;;;5048816;28;20052;-30
2023/06/12 09:45:12;;;;;;;4.15;3.42;;;23.60;72.10;;;;;;5038879;28;20125;-30
2023/06/12 09:47:43;;;;;;;4.05;3.20;;;23.80;72.90;;;;;;5046074;28;20041;-30
2023/06/12 09:50:12;;;;;;;4.10;3.30;;;23.70;57.30;;;;;;5048244;28;20052;-31
2023/06/12 09:52:40;;;;;;;4.25;3.28;;;23.70;72.90;;;;;;5051049;28;20045;-30
2023/06/12 09:55:08;;;;;;;3.85;3.22;;;24.20;60.20;;;;;;5051034;28;20102;-30
2023/06/12 09:57:36;;;;;;;5.55;3.72;;;24.10;73.20;;;;;;5050356;28;20049;-31
2023/06/12 10:00:05;;;;;;;6.63;3.10;;;24.00;72.50;;;;;;5054115;28;20071;-30
2023/06/12 10:02:31;;;;;;;6.50;3.33;;;23.80;72.50;;;;;;5054005;28;20059;-30
2023/06/12 10:05:01;;;;;;;4.32;2.88;;;23.90;57.90;;;;;;5046315;28;20459;-32
2023/06/12 10:07:31;;;;;;;8.85;3.50;;;23.90;57.90;;;;;;5047217;28;20053;-33
2023/06/12 10:09:58;;;;;;;5.35;3.50;;;;;;;;;;5054053;28;20041;-32
2023/06/12 10:12:25;;;;;;;4.93;3.50;;;24.30;65.30;;;;;;5053653;28;20118;-32
2023/06/12 10:14:51;;;;;;;4.35;3.60;;;24.10;72.90;;;;;;5051947;28;20041;-32
2023/06/12 10:17:18;;;;;;;7.50;3.47;;;;;;;;;;5053459;28;20051;-32
2023/06/12 10:19:47;;;;;;;4.68;3.53;;;25.10;73.20;;;;;;5050651;28;20049;-32
2023/06/12 10:22:14;;;;;;;6.43;3.90;;;23.40;72.80;;;;;;5050858;28;20124;-33
2023/06/12 10:24:42;;;;;;;5.90;3.53;;;24.10;58.00;;;;;;5053665;28;20124;-32
2023/06/12 10:27:11;;;;;;;6.13;3.85;;;;;;;;;;5053868;28;20045;-32
2023/06/12 10:29:38;;;;;;;5.25;3.55;;;23.60;72.80;;;;;;5053966;28;20057;-32
2023/06/12 10:32:06;;;;;;;4.18;3.60;;;24.10;58.10;;;;;;5053032;28;20045;-31
2023/06/12 10:34:33;;;;;;;4.03;3.17;;;25.30;73.30;;;;;;5053466;28;20405;-32
2023/06/12 10:37:00;;;;;;;4.88;3.30;;;24.90;58.60;;;;;;5053198;28;20095;-32
2023/06/12 10:39:27;;;;;;;5.82;3.40;;;24.00;72.50;;;;;;5052821;28;20480;-32
2023/06/12 10:41:56;;;;;;;4.90;3.30;;;24.00;72.40;;;;;;5052451;28;20079;-32
2023/06/12 10:44:38;;;;;;;6.82;3.30;;;24.20;58.10;;;;;;5050554;28;20527;-31
2023/06/12 10:47:05;;;;;;;5.80;3.38;;;24.00;73.00;;;;;;5050673;28;20126;-32
2023/06/12 10:49:32;;;;;;;4.82;3.45;;;24.20;58.10;;;;;;5050898;28;20132;-32
2023/06/12 10:51:59;;;;;;;5.10;3.20;;;24.10;72.20;;;;;;5052771;28;20056;-32
2023/06/12 10:54:26;;;;;;;4.93;3.13;;;24.10;59.20;;;;;;5053102;28;20119;-32
2023/06/12 10:57:00;;;;;;;4.13;3.22;;;23.80;72.90;;;;;;5049714;28;20140;-33
2023/06/12 10:59:33;;;;;;;4.35;3.20;;;24.40;67.60;;;;;;5038717;28;20061;-32
2023/06/12 11:02:00;;;;;;;3.75;3.20;;;23.80;72.60;;;;;;5035682;28;20037;-32
2023/06/12 11:04:27;;;;;;;4.97;3.03;;;24.90;74.00;;;;;;5048217;28;20127;-32
2023/06/12 11:06:54;;;;;;;4.32;3.42;;;;;;;;;;5051548;28;20489;-32
2023/06/12 11:09:21;;;;;;;3.35;2.90;;;23.80;73.40;;;;;;5053103;28;20604;-32
2023/06/12 11:11:51;;;;;;;5.35;3.40;;;24.30;73.10;;;;;;5053210;28;20135;-33
2023/06/12 11:14:25;;;;;;;8.20;3.38;;;23.60;73.00;;;;;;5052601;28;20055;-32
2023/06/12 11:16:57;;;;;;;5.32;3.10;;;25.10;73.10;;;;;;5053297;28;20049;-32
2023/06/12 11:19:26;;;;;;;4.22;3.20;;;24.70;74.30;;;;;;5052839;28;20060;-32
2023/06/12 11:21:54;;;;;;;3.70;3.10;;;24.50;74.10;;;;;;5052608;28;20416;-32
2023/06/12 11:24:22;;;;;;;9.55;3.47;;;24.30;73.10;;;;;;5050720;28;20053;-32
2023/06/12 11:26:49;;;;;;;4.75;3.17;;;24.20;73.00;;;;;;5052985;28;20084;-32
2023/06/12 11:29:16;;;;;;;5.60;3.22;;;24.70;74.10;;;;;;5052675;28;20047;-32
2023/06/12 11:31:49;;;;;;;4.43;3.10;;;24.40;69.70;;;;;;5052567;28;20426;-32
2023/06/12 11:34:16;;;;;;;3.75;3.00;;;;;;;;;;5051858;28;20131;-32
2023/06/12 11:36:44;;;;;;;11.18;3.22;;;;;;;;;;5048713;28;20055;-32
2023/06/12 11:39:17;;;;;;;6.05;3.53;;;24.40;72.70;;;;;;5052175;28;20044;-32
2023/06/12 11:41:44;;;;;;;4.55;3.22;;;24.30;72.50;;;;;;5051239;28;20048;-32
2023/06/12 11:44:11;;;;;;;5.97;3.55;;;;;;;;;;5051566;28;20520;-31
2023/06/12 11:46:38;;;;;;;5.88;3.20;;;23.90;73.60;;;;;;5051950;28;20464;-32
2023/06/12 11:49:07;;;;;;;5.07;2.88;;;24.40;73.10;;;;;;5051954;28;20107;-32
2023/06/12 11:51:33;;;;;;;4.13;3.22;;;23.50;64.80;;;;;;5049003;28;20128;-32
2023/06/12 11:54:00;;;;;;;4.57;3.30;;;24.30;72.80;;;;;;5051774;28;20128;-32
2023/06/12 11:56:27;;;;;;;4.45;3.38;;;;;;;;;;5052005;28;20057;-32
2023/06/12 11:58:55;;;;;;;5.95;3.25;;;;;;;;;;5046671;28;20049;-32
2023/06/12 12:01:22;;;;;;;3.97;3.08;;;;;;;;;;5051459;28;20045;-31
2023/06/12 12:03:49;;;;;;;4.03;3.10;;;24.20;63.30;;;;;;5051215;28;20052;-32
2023/06/12 12:06:18;;;;;;;4.60;3.03;;;24.10;60.00;;;;;;5048125;28;20106;-31
2023/06/12 12:08:44;;;;;;;4.65;3.20;;;24.40;72.90;;;;;;5049591;28;20462;-32
2023/06/12 12:11:18;;;;;;;4.30;3.10;;;23.70;72.80;;;;;;5051319;28;20120;-32
2023/06/12 12:13:49;;;;;;;4.37;3.30;;;24.90;73.10;;;;;;5049060;28;20057;-32
2023/06/12 12:16:16;;;;;;;3.92;3.13;;;;;;;;;;5050509;28;20052;-31
2023/06/12 12:18:43;;;;;;;4.85;3.58;;;24.90;73.60;;;;;;5050573;28;20133;-32
2023/06/12 12:21:14;;;;;;;3.75;3.08;;;24.60;73.90;;;;;;5051631;28;20127;-32
2023/06/12 12:23:43;;;;;;;4.63;3.17;;;24.40;69.80;;;;;;5048291;28;20780;-32
2023/06/12 12:26:12;;;;;;;3.47;2.85;;;24.40;58.60;;;;;;5051331;28;20045;-32
2023/06/12 12:28:39;;;;;;;4.30;3.38;;;24.40;63.40;;;;;;5051436;28;20045;-32
2023/06/12 12:31:07;;;;;;;4.65;3.00;;;24.90;73.00;;;;;;5048210;28;20045;-33
2023/06/12 12:33:33;;;;;;;4.45;2.90;;;24.60;73.60;;;;;;5048846;28;20107;-32
2023/06/12 12:36:00;;;;;;;3.63;3.05;;;;;;;;;;5050888;28;20095;-32
2023/06/12 12:38:27;;;;;;;4.97;3.15;;;24.30;64.60;;;;;;5048928;28;20530;-32
2023/06/12 12:40:55;;;;;;;3.33;2.90;;;23.90;64.40;;;;;;5051308;28;20051;-32
2023/06/12 12:43:22;;;;;;;3.95;3.35;;;24.50;73.20;;;;;;5051252;28;20132;-32
2023/06/12 12:45:48;;;;;;;4.15;3.30;;;24.30;72.50;;;;;;5050992;28;20056;-32
2023/06/12 12:48:15;;;;;;;4.28;2.90;;;24.60;61.60;;;;;;5051731;28;20132;-32
2023/06/12 12:50:42;;;;;;;3.70;3.10;;;;;;;;;;5051637;28;20132;-32
2023/06/12 12:53:09;;;;;;;3.72;3.17;;;;;;;;;;5048142;28;20136;-31
2023/06/12 12:55:36;;;;;;;3.80;3.20;;;;;;;;;;5031686;28;20132;-32
2023/06/12 12:58:04;;;;;;;5.22;3.10;;;24.50;58.30;;;;;;5040019;28;20124;-31
2023/06/12 13:00:31;;;;;;;4.38;3.33;;;;;;;;;;5051432;28;20137;-31
2023/06/12 13:02:58;;;;;;;3.80;3.33;;;24.60;72.60;;;;;;5040842;28;20562;-32
2023/06/12 13:05:25;;;;;;;3.70;3.30;;;;;;;;;;5031703;28;20132;-32
2023/06/12 13:07:52;;;;;;;4.07;3.22;;;24.10;68.00;;;;;;5031496;28;20056;-32
2023/06/12 13:10:19;;;;;;;3.40;3.10;;;24.30;72.50;;;;;;5031604;28;20483;-32
2023/06/12 13:12:46;;;;;;;3.90;2.88;;;;;;;;;;5031335;28;20049;-31